Accueil
METAR-TAF:

METAR-TAF

Aéroports :

Hagåtña, Guam, États-Unis

Aéroport international Antonio-B.-Won-Pat de Guam

latitude: 13-29N, longitude: 144-48E, altitude: 91 m

Observation

Le bulletin a été fait il y a 47 minutes, à 21:20 UTC
Vent 9 kt de est
Température 26°C
Humidité 100%
Pression 1013 hPa
Visibilité: 14.5 km
Quelques nuages à une hauteur de 1200 ft
Nuages fragmentés à une hauteur de 3000 ft
Nuages fragmentés à une hauteur de 4000 ft

METAR: PGUM 222120Z 09009KT 9SM FEW012 BKN030 BKN040 26/26 A2991 RMK AO2 RAE18 P0013 T02610256

Heure: 08:07 (22:07 UTC)

Prévision

Le bulletin a été fait il y a 4 heures et 41 minutes, à 17:26 UTC
Prévision valable du 22 à 18 UTC au 23 à 24 UTC
Vent 11 kt de est/nord-est
Visibilité: 10 km
Quelques nuages à une hauteur de 2000 ft
Nuages fragmentés à une hauteur de 3500 ft
averses à proximité

TAF: PGUM 221726Z 2218/2324 07011KT P6SM VCSH FEW020 BKN035

Observations et prévisions météorologiques de plus de 4000 aéroports (messages METAR et TAF).

Les stations disponibles sont représentées par des disques jaunes et rouges sur la carte.

Passer la souris dessus pour voir le nom de la station.

Cliquer dessus pour voir les observations et prévisions météorologiques.

Pour changer de carte: cliquez sur les boutons verts avec une croix noire pour zoomer, sur le bouton vert avec un tiret pour effectuer un zoom arrière, ou sur les flèches vertes pour les cartes adjacentes.


METAR-TAF: